Time;durP1;ratioP1;P1;durP2;ratioP2;P2;SDS_P1;SDS_P2;PMS_P1;PMS_P2;Temp;Humidity;BMP_temperature;BMP_pressure;BME280_temperature;BME280_humidity;BME280_pressure;Samples;Min_cycle;Max_cycle;Signal;HPM_P1;HPM_P2
2022/05/04 00:00:11;;;;;;;5.43;2.30;;;3.40;99.90;2.40;100693;;;;586112;240;24068;-77
2022/05/04 00:02:39;;;;;;;4.50;2.83;;;3.40;99.90;2.40;100695;;;;586796;240;24045;-77
2022/05/04 00:05:07;;;;;;;6.03;2.30;;;3.30;99.90;2.30;100694;;;;595783;240;24079;-77
2022/05/04 00:07:35;;;;;;;4.27;2.67;;;3.30;99.90;2.30;100693;;;;595817;236;24100;-76
2022/05/04 00:10:02;;;;;;;5.90;2.70;;;3.30;99.90;2.20;100698;;;;586568;240;24151;-77
2022/05/04 00:12:34;;;;;;;7.90;3.07;;;3.20;99.90;2.20;100698;;;;586536;240;24144;-77
2022/05/04 00:15:01;;;;;;;9.80;2.70;;;3.20;99.90;2.10;100693;;;;595457;240;24082;-77
2022/05/04 00:17:26;;;;;;;5.77;2.27;;;3.10;99.90;2.10;100694;;;;595617;240;24070;-77
2022/05/04 00:19:54;;;;;;;4.63;1.93;;;3.10;99.90;2.00;100697;;;;586770;240;25089;-76
2022/05/04 00:22:25;;;;;;;5.10;1.90;;;3.00;99.90;2.00;100689;;;;586397;241;24179;-76
2022/05/04 00:24:51;;;;;;;5.30;2.37;;;3.00;99.90;2.00;100703;;;;585335;241;25122;-77
2022/05/04 00:27:19;;;;;;;2.73;2.00;;;3.00;99.90;2.00;100703;;;;585532;241;24067;-77
2022/05/04 00:29:49;;;;;;;4.57;2.00;;;3.00;99.90;2.00;100706;;;;595051;241;24073;-77
2022/05/04 00:32:17;;;;;;;6.93;2.20;;;3.00;99.90;1.90;100712;;;;586041;241;24091;-77
2022/05/04 00:34:42;;;;;;;6.57;2.33;;;3.00;99.90;1.90;100708;;;;584912;241;24083;-77
2022/05/04 00:37:10;;;;;;;8.37;2.30;;;2.90;99.90;1.90;100702;;;;585923;241;24060;-78
2022/05/04 00:39:38;;;;;;;6.07;2.33;;;2.90;99.90;1.80;100703;;;;585239;241;24049;-77
2022/05/04 00:42:15;;;;;;;14.77;2.90;;;2.80;99.90;1.80;100709;;;;595586;237;24123;-78
2022/05/04 00:44:42;;;;;;;19.27;4.07;;;2.80;99.90;1.80;100711;;;;585362;241;24061;-77
2022/05/04 00:47:10;;;;;;;9.80;2.83;;;2.80;99.90;1.80;100714;;;;595576;241;24082;-76
2022/05/04 00:49:41;;;;;;;12.03;3.30;;;2.80;99.90;1.80;100710;;;;591376;241;24065;-77
2022/05/04 00:52:06;;;;;;;15.43;3.87;;;2.80;99.90;1.70;100709;;;;586279;241;24078;-76
2022/05/04 00:54:35;;;;;;;7.70;4.10;;;2.60;99.90;1.60;100715;;;;585429;237;24105;-77
2022/05/04 00:57:04;;;;;;;14.30;3.77;;;2.60;99.90;1.50;100721;;;;587471;240;24119;-77
2022/05/04 00:59:32;;;;;;;13.03;3.67;;;2.60;99.90;1.50;100719;;;;587757;240;24051;-77
2022/05/04 01:02:00;;;;;;;6.43;3.17;;;2.50;99.90;1.50;100726;;;;587536;240;24079;-78
2022/05/04 01:04:32;;;;;;;8.77;3.20;;;2.50;99.90;1.50;100728;;;;596585;236;24156;-80
2022/05/04 01:07:01;;;;;;;9.90;3.30;;;2.50;99.90;1.50;100727;;;;596177;240;24137;-80
2022/05/04 01:09:25;;;;;;;14.30;3.40;;;2.40;99.90;1.50;100729;;;;584912;240;24056;-79
2022/05/04 01:11:53;;;;;;;11.70;3.10;;;2.50;99.90;1.50;100726;;;;585807;240;24074;-79
2022/05/04 01:14:21;;;;;;;8.20;3.30;;;2.50;99.90;1.50;100731;;;;586016;240;24126;-78
2022/05/04 01:16:52;;;;;;;16.67;4.37;;;2.50;99.90;1.50;100735;;;;585806;240;24056;-77
2022/05/04 01:19:17;;;;;;;10.17;3.40;;;2.50;99.90;1.50;100735;;;;591601;240;24079;-79
2022/05/04 01:21:44;;;;;;;12.30;3.37;;;2.50;99.90;1.40;100731;;;;587078;240;24116;-78
2022/05/04 01:24:13;;;;;;;12.20;3.12;;;2.40;99.90;1.40;100738;;;;581843;240;35190;-75
2022/05/04 01:26:41;;;;;;;8.43;2.47;;;2.40;99.90;1.30;100736;;;;586137;240;24093;-77
2022/05/04 01:29:10;;;;;;;6.67;1.87;;;2.30;99.90;1.30;100741;;;;586141;240;24086;-77
2022/05/04 01:31:38;;;;;;;10.43;3.57;;;2.30;99.90;1.30;100740;;;;585824;240;24091;-74
2022/05/04 01:34:06;;;;;;;10.20;3.40;;;2.30;99.90;1.20;100734;;;;595271;241;24060;-76
2022/05/04 01:36:34;;;;;;;4.93;2.60;;;2.30;99.90;1.20;100739;;;;586341;241;24092;-76
2022/05/04 01:39:03;;;;;;;7.10;3.10;;;2.30;99.90;1.10;100735;;;;595405;237;24078;-76
2022/05/04 01:44:21;;;;;;;9.50;3.53;;;2.20;99.90;1.30;100745;;;;591417;241;24060;-76
2022/05/04 01:46:45;;;;;;;9.18;3.40;;;2.30;99.90;1.40;100741;;;;580141;241;46080;-77
2022/05/04 01:49:13;;;;;;;10.40;1.83;;;2.40;99.90;1.40;100745;;;;585551;241;24116;-77
2022/05/04 01:51:41;;;;;;;9.73;2.60;;;2.40;99.90;1.50;100745;;;;585925;241;24103;-77
2022/05/04 01:54:09;;;;;;;7.37;2.80;;;2.50;99.90;1.50;100754;;;;585193;241;24064;-77
2022/05/04 01:56:37;;;;;;;6.40;3.17;;;2.50;99.90;1.50;100751;;;;586223;241;24103;-77
2022/05/04 01:59:05;;;;;;;9.60;3.47;;;2.50;99.90;1.40;100753;;;;595295;240;24124;-77
2022/05/04 02:01:33;;;;;;;3.83;2.20;;;2.40;99.90;1.40;100752;;;;585160;241;24163;-77
2022/05/04 02:04:01;;;;;;;3.30;2.07;;;2.40;99.90;1.40;100753;;;;585904;241;24094;-77
2022/05/04 02:06:29;;;;;;;3.83;2.00;;;2.40;99.90;1.40;100740;;;;586061;241;24081;-77
2022/05/04 02:09:00;;;;;;;5.33;2.43;;;2.50;99.90;1.50;100749;;;;587027;240;24085;-77
2022/05/04 02:11:29;;;;;;;3.37;2.43;;;2.50;99.90;1.50;100750;;;;586269;240;24064;-77
2022/05/04 02:13:56;;;;;;;5.77;2.13;;;2.50;99.90;1.60;100759;;;;586819;240;24104;-76
2022/05/04 02:16:23;;;;;;;2.53;2.07;;;2.60;99.90;1.60;100752;;;;586121;240;24146;-77
2022/05/04 02:18:51;;;;;;;6.20;2.43;;;2.60;99.90;1.60;100754;;;;585745;240;24067;-78
2022/05/04 02:21:19;;;;;;;5.20;2.30;;;2.60;99.90;1.70;100758;;;;586435;240;24159;-77
2022/05/04 02:23:47;;;;;;;6.20;2.30;;;2.70;99.90;1.70;100756;;;;585765;240;24072;-77
2022/05/04 02:26:18;;;;;;;5.00;1.57;;;2.70;99.90;1.80;100753;;;;586400;240;24176;-76
2022/05/04 02:28:43;;;;;;;2.07;1.70;;;2.80;99.90;1.90;100758;;;;586308;240;24071;-77
2022/05/04 02:31:14;;;;;;;4.10;2.20;;;2.90;99.90;2.00;100756;;;;585831;240;24076;-76
2022/05/04 02:33:39;;;;;;;3.13;1.63;;;3.00;99.90;1.90;100759;;;;591465;240;24134;-76
2022/05/04 02:38:52;;;;;;;2.03;1.47;;;2.90;99.90;1.90;100759;;;;591794;240;24057;-80
2022/05/04 02:41:22;;;;;;;4.20;2.00;;;2.90;99.90;1.80;100755;;;;587001;240;24154;-77
2022/05/04 02:43:50;;;;;;;3.87;2.17;;;2.80;99.90;1.80;100760;;;;585915;241;24124;-77
2022/05/04 02:46:18;;;;;;;3.10;1.60;;;2.80;99.90;1.80;100759;;;;595451;241;24127;-77
2022/05/04 02:48:48;;;;;;;3.40;1.70;;;2.80;99.90;1.80;100759;;;;586216;241;24085;-77
2022/05/04 02:51:16;;;;;;;5.17;2.13;;;2.80;99.90;1.80;100755;;;;586541;241;24048;-80
2022/05/04 02:53:44;;;;;;;5.07;2.13;;;2.80;99.90;1.70;100758;;;;595476;237;24054;-81
2022/05/04 02:56:15;;;;;;;2.20;1.60;;;2.70;99.90;1.60;100761;;;;585859;241;24085;-77
2022/05/04 02:58:40;;;;;;;3.00;2.17;;;2.70;99.90;1.60;100766;;;;586391;241;24056;-76
2022/05/04 03:03:39;;;;;;;4.87;2.70;;;2.60;99.90;1.70;100775;;;;586628;241;24069;-76
2022/05/04 03:06:06;;;;;;;1.80;1.27;;;2.70;99.90;1.70;100767;;;;586570;241;24113;-78
2022/05/04 03:08:34;;;;;;;4.53;1.70;;;2.70;99.90;1.70;100773;;;;586160;241;24171;-76
2022/05/04 03:13:48;;;;;;;6.20;1.80;;;2.80;99.90;1.90;100776;;;;591991;241;24087;-77
2022/05/04 03:16:17;;;;;;;6.70;2.10;;;2.90;99.90;2.10;100785;;;;586410;241;24058;-76
2022/05/04 03:18:44;;;;;;;5.00;2.87;;;3.00;99.90;2.10;100784;;;;585688;241;24049;-77
2022/05/04 03:21:12;;;;;;;5.83;4.10;;;3.10;99.90;2.20;100782;;;;587291;240;24143;-78
2022/05/04 03:23:40;;;;;;;7.43;5.10;;;3.10;99.90;2.30;100780;;;;586658;240;24094;-77
2022/05/04 03:26:09;;;;;;;8.67;5.17;;;3.20;99.90;2.30;100780;;;;586589;240;26388;-77
2022/05/04 03:28:37;;;;;;;14.40;6.03;;;3.20;99.90;2.30;100787;;;;587275;240;24084;-77
2022/05/04 03:31:04;;;;;;;6.93;4.60;;;3.30;99.90;2.30;100784;;;;587257;237;24065;-77
2022/05/04 03:33:32;;;;;;;5.00;4.37;;;3.30;99.90;2.30;100781;;;;586444;240;24074;-77
2022/05/04 03:36:00;;;;;;;5.77;4.50;;;3.30;99.90;2.30;100792;;;;587624;240;24060;-77
2022/05/04 03:38:28;;;;;;;6.03;4.00;;;3.30;99.90;2.40;100789;;;;597081;237;24107;-79
2022/05/04 03:40:56;;;;;;;6.33;3.77;;;3.30;99.90;2.40;100790;;;;597097;240;24120;-78
2022/05/04 03:43:24;;;;;;;7.13;3.57;;;3.40;99.90;2.40;100793;;;;586900;240;24113;-80
2022/05/04 03:45:56;;;;;;;6.40;3.57;;;3.40;99.90;2.40;100794;;;;586929;240;24102;-80
2022/05/04 03:48:20;;;;;;;5.83;3.23;;;3.40;99.90;2.40;100794;;;;596482;237;24090;-79
2022/05/04 03:50:48;;;;;;;7.97;2.47;;;3.40;99.90;2.50;100807;;;;596595;240;24118;-80
2022/05/04 03:53:16;;;;;;;2.57;2.00;;;3.50;99.90;2.60;100797;;;;584739;243;24145;-79
2022/05/04 03:55:43;;;;;;;2.37;1.83;;;3.50;99.90;2.70;100806;;;;587164;241;24120;-81
2022/05/04 03:58:11;;;;;;;4.23;2.17;;;3.60;99.90;2.80;100801;;;;574814;245;24082;-78
2022/05/04 04:00:39;;;;;;;4.60;1.67;;;3.70;99.90;2.90;100802;;;;586898;241;24056;-77
2022/05/04 04:03:07;;;;;;;5.13;2.60;;;3.80;99.90;3.00;100806;;;;586642;241;24033;-80
2022/05/04 04:05:35;;;;;;;3.33;2.27;;;4.00;99.90;3.20;100809;;;;586206;241;24065;-80
2022/05/04 04:08:07;;;;;;;1.73;1.63;;;4.10;99.90;3.70;100807;;;;585746;241;24111;-81
2022/05/04 04:10:31;;;;;;;2.33;2.10;;;4.60;99.90;5.30;100818;;;;585481;241;24088;-79
2022/05/04 04:12:59;;;;;;;4.83;1.87;;;6.00;99.90;7.20;100831;;;;585988;237;24056;-78
2022/05/04 04:15:27;;;;;;;2.23;1.60;;;7.80;99.90;8.90;100830;;;;585787;241;24163;-81
2022/05/04 04:17:55;;;;;;;3.83;1.63;;;9.60;99.90;10.50;100838;;;;585827;241;24071;-80
2022/05/04 04:23:09;;;;;;;2.50;1.63;;;14.30;86.10;13.50;100846;;;;586864;241;24106;-80
2022/05/04 04:25:38;;;;;;;2.50;1.67;;;14.20;85.90;14.30;100844;;;;586057;241;24067;-80
2022/05/04 04:28:07;;;;;;;5.10;1.40;;;16.20;70.70;15.00;100847;;;;586199;241;24139;-82
2022/05/04 04:30:35;;;;;;;2.97;1.30;;;16.10;70.50;16.00;100850;;;;586288;238;24045;-79
2022/05/04 04:33:05;;;;;;;2.93;1.57;;;17.10;61.50;16.60;100865;;;;588795;240;24074;-78
2022/05/04 04:35:32;;;;;;;1.53;1.30;;;17.70;56.80;17.00;100866;;;;588197;240;24090;-79
2022/05/04 04:38:03;;;;;;;4.63;1.73;;;18.10;55.20;17.20;100867;;;;597051;240;24108;-77
2022/05/04 04:40:28;;;;;;;6.33;1.60;;;19.10;52.90;17.70;100867;;;;587071;240;24132;-81
2022/05/04 04:42:57;;;;;;;2.23;1.90;;;19.80;49.60;18.50;100872;;;;586932;240;24087;-79
2022/05/04 04:45:26;;;;;;;3.50;1.53;;;19.90;48.40;18.50;100865;;;;586774;240;24183;-81
2022/05/04 04:47:57;;;;;;;1.63;1.13;;;19.90;48.20;18.90;100875;;;;586701;240;23085;-78
2022/05/04 04:50:22;;;;;;;3.93;1.33;;;20.20;47.00;19.20;100884;;;;585468;240;24139;-78
2022/05/04 04:52:50;;;;;;;2.00;1.80;;;20.50;46.30;19.60;100879;;;;586243;240;24063;-77
2022/05/04 04:55:18;;;;;;;5.30;1.30;;;20.80;45.50;19.90;100878;;;;586205;240;24176;-78
2022/05/04 04:57:45;;;;;;;3.40;1.60;;;21.20;44.80;20.40;100884;;;;586101;240;24089;-77
2022/05/04 05:00:13;;;;;;;4.27;1.27;;;21.60;43.20;20.60;100882;;;;586231;240;24122;-76
2022/05/04 05:02:42;;;;;;;2.03;1.53;;;21.80;43.00;20.80;100884;;;;586677;240;24085;-77
2022/05/04 05:05:09;;;;;;;2.47;1.57;;;22.00;43.00;21.70;100893;;;;586246;240;24134;-78
2022/05/04 05:07:38;;;;;;;5.53;1.80;;;22.70;42.70;22.10;100900;;;;586035;241;24181;-78
2022/05/04 05:10:08;;;;;;;4.50;2.03;;;23.30;41.00;22.20;100904;;;;585922;241;24084;-78
2022/05/04 05:12:36;;;;;;;5.33;2.10;;;23.60;40.40;22.90;100901;;;;586373;241;23113;-77
2022/05/04 05:17:50;;;;;;;1.73;1.43;;;24.60;38.50;24.20;100906;;;;586387;241;24176;-79
2022/05/04 05:20:18;;;;;;;3.37;1.63;;;25.30;38.00;24.80;100915;;;;586034;241;24076;-81
2022/05/04 05:22:45;;;;;;;3.50;1.47;;;26.00;36.50;24.90;100914;;;;595740;237;24081;-77
2022/05/04 05:25:13;;;;;;;3.90;1.60;;;26.30;35.40;24.40;100923;;;;586286;241;24070;-77
2022/05/04 05:27:41;;;;;;;2.40;1.60;;;26.10;34.60;23.90;100919;;;;586022;241;23074;-77
2022/05/04 05:30:13;;;;;;;3.00;1.80;;;25.50;35.00;22.80;100916;;;;586044;241;24110;-76
2022/05/04 05:32:37;;;;;;;3.13;1.73;;;24.60;35.90;22.30;100913;;;;586152;241;24068;-77
2022/05/04 05:35:08;;;;;;;2.87;1.60;;;23.90;37.10;22.70;100920;;;;585437;241;24029;-76
2022/05/04 05:37:33;;;;;;;3.10;2.70;;;23.90;38.20;23.00;100921;;;;585902;241;24112;-77
2022/05/04 05:40:01;;;;;;;6.93;2.10;;;24.10;37.60;22.60;100918;;;;585473;241;24085;-76
2022/05/04 05:42:29;;;;;;;5.00;2.17;;;23.90;37.70;22.50;100925;;;;585751;239;24070;-78
2022/05/04 05:44:57;;;;;;;3.03;1.80;;;23.80;37.60;22.10;100929;;;;586949;240;24187;-77
2022/05/04 05:47:25;;;;;;;6.83;2.17;;;23.40;37.80;21.40;100925;;;;586480;240;24176;-77
2022/05/04 05:49:53;;;;;;;3.70;1.90;;;22.70;39.20;21.20;100933;;;;586399;240;24136;-77
2022/05/04 05:52:21;;;;;;;2.33;1.77;;;22.40;39.20;21.10;100935;;;;586004;240;24124;-77
2022/05/04 05:54:48;;;;;;;4.27;2.17;;;22.10;40.00;21.40;100931;;;;586536;240;24103;-77
2022/05/04 05:57:16;;;;;;;7.47;2.30;;;22.30;40.00;22.10;100928;;;;586573;240;24129;-77
2022/05/04 05:59:44;;;;;;;5.87;1.53;;;22.80;39.30;22.50;100939;;;;586361;240;24099;-77
2022/05/04 06:02:12;;;;;;;3.17;1.70;;;23.30;38.40;22.30;100931;;;;586469;240;24075;-77
2022/05/04 06:04:41;;;;;;;4.90;1.97;;;23.60;39.10;22.60;100932;;;;586048;240;24092;-76
2022/05/04 06:07:09;;;;;;;3.20;2.03;;;23.50;39.00;23.40;100935;;;;587058;240;24070;-77
2022/05/04 06:09:37;;;;;;;3.67;1.63;;;24.10;37.90;23.40;100940;;;;586954;240;24069;-78
2022/05/04 06:12:05;;;;;;;3.67;2.40;;;24.40;37.50;23.40;100939;;;;586153;240;24042;-78
2022/05/04 06:14:33;;;;;;;4.97;1.97;;;24.40;37.00;23.90;100940;;;;586785;240;24060;-79
2022/05/04 06:17:00;;;;;;;4.67;2.00;;;24.80;36.70;24.20;100942;;;;586259;240;24096;-78
2022/05/04 06:19:28;;;;;;;4.70;2.07;;;25.10;36.40;23.90;100941;;;;586202;241;24080;-78
2022/05/04 06:21:58;;;;;;;5.67;2.30;;;25.00;36.50;24.10;100943;;;;586168;241;23071;-78
2022/05/04 06:24:28;;;;;;;9.03;2.43;;;25.40;36.40;24.50;100943;;;;586437;241;24159;-81
2022/05/04 06:26:54;;;;;;;4.47;2.13;;;25.50;35.90;24.40;100950;;;;586520;241;24063;-80
2022/05/04 06:34:06;;;;;;;4.37;2.00;;;25.40;35.80;23.50;100946;;;;585998;241;24065;-79
2022/05/04 06:34:35;;;;;;;2.80;1.83;;;24.40;37.00;23.80;100958;;;;586957;241;24114;-79
2022/05/04 06:37:04;;;;;;;4.90;1.70;;;25.30;35.90;24.30;100953;;;;586183;241;24062;-78
2022/05/04 06:39:33;;;;;;;5.93;2.47;;;25.60;35.30;24.80;100953;;;;585888;241;24128;-78
2022/05/04 06:42:01;;;;;;;6.07;1.90;;;25.60;35.30;25.40;100954;;;;586298;241;24186;-79
2022/05/04 06:44:29;;;;;;;8.33;2.03;;;26.10;35.40;26.00;100948;;;;586220;241;23098;-78
2022/05/04 06:46:57;;;;;;;6.40;1.90;;;26.80;34.70;27.20;100954;;;;585904;241;23089;-78
2022/05/04 06:49:24;;;;;;;5.47;2.13;;;27.60;34.20;27.90;100958;;;;585815;241;23103;-79
2022/05/04 06:51:52;;;;;;;3.30;1.60;;;28.50;33.80;28.90;100958;;;;585478;241;23077;-78
2022/05/04 06:54:20;;;;;;;4.40;1.67;;;29.40;33.00;29.30;100960;;;;586051;240;23064;-79
2022/05/04 06:56:48;;;;;;;5.90;2.08;;;30.00;32.90;29.80;100965;;;;586961;240;23062;-79
2022/05/04 06:59:17;;;;;;;9.05;2.17;;;30.70;31.50;29.70;100960;;;;586660;240;24148;-77
2022/05/04 07:01:44;;;;;;;6.45;2.10;;;30.90;31.10;29.80;100964;;;;581114;240;35171;-77
2022/05/04 07:04:12;;;;;;;3.72;1.60;;;31.00;30.80;29.60;100973;;;;586721;240;23139;-81
2022/05/04 07:06:40;;;;;;;9.82;2.10;;;30.80;30.60;28.50;100981;;;;586485;240;23082;-81
2022/05/04 07:09:09;;;;;;;4.72;1.90;;;29.20;31.60;27.60;100974;;;;586413;240;23061;-79
2022/05/04 07:11:37;;;;;;;8.27;2.20;;;28.70;32.10;27.40;100979;;;;586248;240;23061;-81
2022/05/04 07:14:05;;;;;;;4.37;1.70;;;28.70;32.10;27.10;100968;;;;585943;240;24160;-81
2022/05/04 07:16:33;;;;;;;4.47;1.67;;;28.20;32.70;27.10;100981;;;;586141;240;23054;-77
2022/05/04 07:19:02;;;;;;;5.90;2.33;;;28.00;33.20;27.00;100973;;;;586002;240;24093;-80
2022/05/04 07:21:29;;;;;;;4.03;1.70;;;27.90;33.20;26.90;100978;;;;585974;240;23076;-81
2022/05/04 07:23:57;;;;;;;14.70;2.37;;;27.80;32.90;26.20;100975;;;;586226;240;23062;-82
2022/05/04 07:26:25;;;;;;;4.47;1.70;;;27.40;33.20;26.00;100971;;;;586300;240;23060;-81
2022/05/04 07:28:53;;;;;;;6.37;2.20;;;27.00;33.70;25.90;100969;;;;586731;240;23065;-81
2022/05/04 07:31:21;;;;;;;8.50;3.03;;;27.00;34.50;26.20;100975;;;;586350;237;23111;-82
2022/05/04 07:33:49;;;;;;;4.07;2.20;;;26.90;34.40;25.60;100977;;;;586822;241;24149;-81
2022/05/04 07:36:17;;;;;;;6.70;1.93;;;26.70;33.30;24.40;100981;;;;586717;241;23081;-81
2022/05/04 07:38:45;;;;;;;5.27;1.93;;;25.90;34.10;23.30;100970;;;;586874;241;24079;-81
2022/05/04 07:43:59;;;;;;;5.93;1.70;;;24.30;36.30;22.60;100974;;;;587174;241;24184;-80
2022/05/04 07:46:30;;;;;;;5.30;1.60;;;23.80;35.70;22.00;100970;;;;586986;241;24071;-80
2022/05/04 07:48:57;;;;;;;3.63;2.10;;;23.20;36.50;21.60;100976;;;;586718;241;23165;-80
2022/05/04 07:51:26;;;;;;;3.63;1.80;;;22.30;38.10;21.20;100975;;;;586477;241;24061;-81
2022/05/04 07:53:54;;;;;;;7.47;1.50;;;22.20;37.80;20.60;100974;;;;586413;241;23150;-77
2022/05/04 07:56:22;;;;;;;3.03;1.20;;;21.70;38.20;19.90;100974;;;;586200;241;24054;-77
2022/05/04 07:58:50;;;;;;;4.90;1.40;;;21.20;39.10;19.80;100980;;;;585597;241;24057;-76
2022/05/04 08:04:17;;;;;;;1.70;1.50;;;20.60;40.10;19.80;100974;;;;586056;241;23118;-76
2022/05/04 08:06:45;;;;;;;4.53;1.73;;;20.60;40.10;19.80;100974;;;;586745;240;24151;-77
2022/05/04 08:09:12;;;;;;;7.50;1.60;;;20.70;39.80;19.80;100978;;;;587225;240;24053;-77
2022/05/04 08:11:41;;;;;;;3.70;1.60;;;21.10;39.50;20.40;100983;;;;586939;240;24074;-77
2022/05/04 08:14:09;;;;;;;6.87;1.83;;;21.10;38.70;21.20;100982;;;;586366;240;24057;-77
2022/05/04 08:16:37;;;;;;;7.57;1.80;;;21.80;38.30;21.80;100984;;;;586496;240;24123;-77
2022/05/04 08:19:08;;;;;;;5.80;1.83;;;22.50;37.80;23.10;100985;;;;596838;240;24059;-77
2022/05/04 08:21:33;;;;;;;7.10;2.20;;;23.60;36.90;24.20;100977;;;;585830;240;24127;-76
2022/05/04 08:24:01;;;;;;;5.77;2.00;;;24.70;35.50;25.10;100988;;;;586584;240;24080;-77
2022/05/04 08:26:29;;;;;;;2.50;1.77;;;26.70;32.60;26.00;100982;;;;585971;240;23169;-77
2022/05/04 08:28:58;;;;;;;3.20;1.40;;;27.30;32.10;26.30;100988;;;;585947;240;23073;-77
2022/05/04 08:31:28;;;;;;;2.93;1.20;;;27.90;32.10;26.90;100985;;;;585854;240;23091;-76
2022/05/04 08:33:58;;;;;;;1.43;1.33;;;27.90;31.60;27.20;100987;;;;585743;240;23160;-76
2022/05/04 08:36:23;;;;;;;3.70;1.50;;;28.20;32.00;27.70;100993;;;;586377;240;23103;-76
2022/05/04 08:38:53;;;;;;;6.63;1.47;;;28.70;30.70;27.10;100997;;;;586121;240;24135;-76
2022/05/04 08:41:18;;;;;;;3.33;1.30;;;28.50;30.40;26.70;100999;;;;586154;240;24133;-77
2022/05/04 08:43:47;;;;;;;6.27;1.57;;;28.00;31.50;26.90;100987;;;;585515;241;23150;-77
2022/05/04 08:46:18;;;;;;;4.47;1.37;;;28.00;31.50;27.20;100996;;;;586320;241;24101;-77
2022/05/04 08:48:46;;;;;;;6.57;1.50;;;28.20;30.90;28.00;100995;;;;587215;241;24049;-82
2022/05/04 08:51:14;;;;;;;3.10;1.43;;;28.80;31.50;28.30;100997;;;;595679;237;23069;-81
2022/05/04 08:53:45;;;;;;;5.87;1.60;;;29.30;30.80;28.00;101001;;;;586118;241;24083;-82
2022/05/04 08:56:09;;;;;;;2.03;1.27;;;29.20;30.50;27.30;100987;;;;586367;241;24152;-76
2022/05/04 08:58:37;;;;;;;3.20;1.73;;;28.80;30.50;26.40;100989;;;;580377;241;45991;-76
2022/05/04 09:01:05;;;;;;;2.10;1.40;;;28.00;31.00;25.90;100994;;;;594081;241;23112;-80
2022/05/04 09:03:36;;;;;;;3.87;2.10;;;27.40;31.20;25.20;100998;;;;586775;241;23061;-80
2022/05/04 09:06:01;;;;;;;1.30;0.97;;;26.70;31.60;24.40;100999;;;;586174;241;23083;-79
2022/05/04 09:08:29;;;;;;;10.03;1.47;;;26.10;31.60;23.50;100995;;;;585868;241;24052;-79
2022/05/04 09:10:57;;;;;;;5.60;1.30;;;25.20;32.20;23.10;100997;;;;586334;241;24053;-80
2022/05/04 09:13:25;;;;;;;3.50;1.50;;;24.50;33.60;22.90;100998;;;;595280;241;24080;-81
2022/05/04 09:15:53;;;;;;;3.03;1.13;;;24.20;34.10;23.00;101002;;;;586234;241;24069;-78
2022/05/04 09:18:21;;;;;;;2.77;0.80;;;23.50;34.50;22.10;100993;;;;586845;240;24059;-76
2022/05/04 09:20:59;;;;;;;2.27;1.30;;;23.10;35.00;21.70;100989;;;;586907;240;24060;-80
2022/05/04 09:23:30;;;;;;;2.17;1.40;;;23.10;35.00;21.40;100988;;;;586180;240;24083;-77
2022/05/04 09:26:00;;;;;;;3.67;1.37;;;22.60;35.10;21.50;100987;;;;586642;240;24086;-78
2022/05/04 09:28:28;;;;;;;1.87;1.20;;;22.50;36.30;22.20;100993;;;;586696;240;24073;-77
2022/05/04 09:30:59;;;;;;;5.37;1.90;;;22.90;35.40;22.30;100983;;;;595534;240;24084;-78
2022/05/04 09:33:30;;;;;;;3.30;1.50;;;23.20;33.90;22.40;100990;;;;586490;240;24080;-78
2022/05/04 09:35:58;;;;;;;3.37;1.40;;;23.40;33.90;21.90;100985;;;;586408;240;24128;-77
2022/05/04 09:46:49;;;;;;;4.33;1.43;;;22.10;37.00;21.40;100973;;;;586816;240;24048;-77
2022/05/04 09:49:34;;;;;;;6.37;1.67;;;22.10;36.50;21.00;100970;;;;586751;240;24116;-76
2022/05/04 09:51:59;;;;;;;3.33;1.40;;;21.50;37.50;20.20;100974;;;;584476;240;24064;-79
2022/05/04 09:54:30;;;;;;;2.37;1.33;;;21.10;38.60;19.90;100972;;;;585917;241;24127;-77
2022/05/04 09:56:58;;;;;;;2.93;1.40;;;21.10;38.60;20.10;100968;;;;586386;241;24140;-78
2022/05/04 09:59:31;;;;;;;2.78;1.60;;;21.10;38.80;20.50;100973;;;;580737;241;35073;-78
2022/05/04 10:02:02;;;;;;;2.77;1.70;;;21.40;38.60;20.50;100963;;;;585810;241;24059;-77
2022/05/04 10:04:28;;;;;;;1.67;1.57;;;21.50;38.60;20.40;100969;;;;586093;241;24058;-79
2022/05/04 10:06:55;;;;;;;1.97;1.20;;;21.50;38.80;20.70;100965;;;;596941;241;24078;-79
2022/05/04 10:09:24;;;;;;;4.27;1.17;;;21.70;38.90;21.00;100969;;;;586290;241;24062;-77
2022/05/04 10:11:57;;;;;;;1.60;1.40;;;22.00;38.70;21.70;100964;;;;586325;241;24058;-78
2022/05/04 10:14:20;;;;;;;2.80;1.23;;;22.60;38.30;22.70;100958;;;;586704;240;24058;-76
2022/05/04 10:17:12;;;;;;;1.60;1.50;;;23.60;38.30;24.00;100951;;;;586316;241;24047;-78
2022/05/04 10:19:46;;;;;;;2.90;1.63;;;24.90;36.80;23.60;100958;;;;586360;241;23080;-77
2022/05/04 10:22:14;;;;;;;4.80;1.80;;;25.10;35.40;23.00;100964;;;;586705;241;24173;-76
2022/05/04 10:24:42;;;;;;;3.57;1.80;;;24.60;36.10;22.10;100958;;;;585646;241;24070;-77
2022/05/04 10:27:15;;;;;;;2.27;1.53;;;23.80;37.00;21.80;100947;;;;586441;241;24096;-79
2022/05/04 10:32:33;;;;;;;6.60;1.47;;;22.50;38.50;21.30;100957;;;;587781;240;24160;-76
2022/05/04 10:35:22;;;;;;;2.87;1.50;;;22.50;38.50;21.20;100954;;;;586925;240;24088;-76
2022/05/04 10:37:59;;;;;;;2.73;1.30;;;22.40;38.10;20.90;100952;;;;586870;240;24062;-77
2022/05/04 10:40:45;;;;;;;1.83;1.03;;;22.00;37.00;20.00;100950;;;;586685;240;23069;-77
2022/05/04 10:43:18;;;;;;;2.10;1.17;;;21.20;38.40;19.40;100947;;;;586699;240;23069;-76
2022/05/04 10:45:46;;;;;;;1.10;1.10;;;20.50;38.10;18.80;100944;;;;586719;240;23156;-77
2022/05/04 10:48:20;;;;;;;1.53;1.07;;;19.90;38.90;18.10;100958;;;;586815;240;24148;-77
2022/05/04 10:50:53;;;;;;;3.13;1.13;;;19.20;39.30;17.40;100944;;;;586497;240;24054;-78
2022/05/04 10:53:27;;;;;;;2.97;1.50;;;18.50;40.80;17.00;100943;;;;586980;240;24062;-82
2022/05/04 10:56:10;;;;;;;2.63;1.30;;;18.00;41.60;16.60;100949;;;;586980;240;24106;-83
2022/05/04 10:58:37;;;;;;;2.93;1.33;;;17.60;42.20;16.00;100943;;;;585298;240;24058;-82
2022/05/04 11:01:27;;;;;;;1.23;0.80;;;17.10;42.80;15.70;100937;;;;586867;240;24088;-82
2022/05/04 11:04:04;;;;;;;4.37;0.80;;;16.60;43.90;15.40;100942;;;;585946;240;24116;-82
2022/05/04 11:06:46;;;;;;;0.80;0.80;;;16.30;43.60;15.10;100936;;;;586451;241;24115;-79
2022/05/04 11:09:17;;;;;;;2.00;0.73;;;16.00;44.20;15.00;100931;;;;586561;241;24155;-77
2022/05/04 11:11:46;;;;;;;0.97;0.90;;;15.70;45.50;14.90;100948;;;;586476;241;24070;-80
2022/05/04 11:14:10;;;;;;;7.73;0.90;;;15.60;45.40;14.60;100931;;;;586196;241;25116;-76
2022/05/04 11:16:40;;;;;;;1.93;1.00;;;15.40;45.40;14.50;100927;;;;586952;241;24273;-79
2022/05/04 11:19:06;;;;;;;1.37;1.10;;;15.20;46.20;14.60;100927;;;;586632;241;24080;-83
2022/05/04 11:21:34;;;;;;;8.10;1.87;;;15.30;45.40;14.50;100924;;;;586919;241;24148;-83
2022/05/04 11:24:01;;;;;;;2.20;0.70;;;15.20;45.90;14.30;100920;;;;586369;241;24067;-78
2022/05/04 11:26:47;;;;;;;1.63;0.77;;;15.10;45.50;14.00;100920;;;;586092;241;24112;-77
2022/05/04 11:29:22;;;;;;;1.57;1.30;;;14.80;45.90;13.80;100920;;;;586154;241;24111;-76
2022/05/04 11:31:54;;;;;;;1.30;0.70;;;14.60;46.60;13.70;100927;;;;586068;241;24070;-79
2022/05/04 11:34:17;;;;;;;3.37;0.90;;;14.50;47.00;13.70;100920;;;;585754;241;24049;-77
2022/05/04 11:36:45;;;;;;;1.13;1.03;;;14.30;47.40;13.60;100896;;;;585252;241;24141;-76
2022/05/04 11:39:18;;;;;;;11.13;2.00;;;14.30;47.70;13.70;100906;;;;581702;241;36028;-77
2022/05/04 11:41:50;;;;;;;5.53;0.93;;;14.30;47.50;13.60;100909;;;;587980;240;24071;-76
2022/05/04 11:44:18;;;;;;;9.10;1.27;;;14.30;47.40;13.60;100903;;;;587365;240;24095;-80
2022/05/04 11:46:47;;;;;;;5.83;0.90;;;14.20;47.00;13.50;100900;;;;586524;240;24089;-79
2022/05/04 11:49:12;;;;;;;2.73;0.57;;;14.10;47.00;13.50;100906;;;;596137;240;24088;-81
2022/05/04 11:51:40;;;;;;;4.73;0.87;;;14.10;47.50;13.40;100907;;;;595864;240;24050;-77
2022/05/04 11:54:12;;;;;;;7.10;0.93;;;14.10;47.60;13.40;100912;;;;586617;240;24046;-77
2022/05/04 11:56:35;;;;;;;4.10;0.90;;;14.00;47.70;13.30;100904;;;;597047;236;24107;-78